createdAt,value
2022-11-03T00:02:19.422Z,17.25
2022-11-03T00:04:48.819Z,16.88
2022-11-03T00:07:23.709Z,10.77
2022-11-03T00:09:52.740Z,17.35
2022-11-03T00:12:22.308Z,18.75
2022-11-03T00:14:52.132Z,15.57
2022-11-03T00:17:26.560Z,13.55
2022-11-03T00:19:55.669Z,15.98
2022-11-03T00:25:21.872Z,16.27
2022-11-03T00:27:57.397Z,14.18
2022-11-03T00:30:31.267Z,18.60
2022-11-03T00:33:02.278Z,13.85
2022-11-03T00:35:31.534Z,17.00
2022-11-03T00:38:00.354Z,17.33
2022-11-03T00:40:29.157Z,14.35
2022-11-03T00:42:58.348Z,14.98
2022-11-03T00:45:26.978Z,18.27
2022-11-03T00:48:15.866Z,14.05
2022-11-03T00:50:50.052Z,13.05
2022-11-03T00:53:21.418Z,12.63
2022-11-03T00:55:51.657Z,13.60
2022-11-03T00:58:20.714Z,12.25
2022-11-03T01:00:50.177Z,12.77
2022-11-03T01:03:19.022Z,13.43
2022-11-03T01:06:07.059Z,14.57
2022-11-03T01:08:37.315Z,17.75
2022-11-03T01:11:30.750Z,14.95
2022-11-03T01:14:00.555Z,15.57
2022-11-03T01:16:30.581Z,13.23
2022-11-03T01:19:00.353Z,19.52
2022-11-03T01:21:31.623Z,14.85
2022-11-03T01:24:03.806Z,13.70
2022-11-03T01:26:33.425Z,13.20
2022-11-03T01:29:02.948Z,15.95
2022-11-03T01:31:35.260Z,16.08
2022-11-03T01:34:04.266Z,15.98
2022-11-03T01:36:35.464Z,13.25
2022-11-03T01:39:04.521Z,13.73
2022-11-03T01:41:33.516Z,13.23
2022-11-03T01:44:36.283Z,14.48
2022-11-03T01:47:24.707Z,14.25
2022-11-03T01:50:01.132Z,12.80
2022-11-03T01:52:36.984Z,14.30
2022-11-03T01:55:10.568Z,14.07
2022-11-03T01:57:43.684Z,12.50
2022-11-03T02:00:14.253Z,17.73
2022-11-03T02:02:43.652Z,13.93
2022-11-03T02:05:15.031Z,13.60
2022-11-03T02:07:53.103Z,16.45
2022-11-03T02:10:22.667Z,13.77
2022-11-03T02:12:52.961Z,16.85
2022-11-03T02:15:26.452Z,17.02
2022-11-03T02:17:57.355Z,15.10
2022-11-03T02:20:29.818Z,13.45
2022-11-03T02:23:26.423Z,14.77
2022-11-03T02:25:59.061Z,19.27
2022-11-03T02:28:33.043Z,14.02
2022-11-03T02:31:11.594Z,15.40
2022-11-03T02:33:50.901Z,14.02
2022-11-03T02:36:33.224Z,14.07
2022-11-03T02:39:14.705Z,14.40
2022-11-03T02:41:48.158Z,10.95
2022-11-03T02:44:20.108Z,15.73
2022-11-03T02:46:53.245Z,15.82
2022-11-03T02:49:35.627Z,13.30
2022-11-03T02:52:14.266Z,15.80
2022-11-03T02:54:51.988Z,15.93
2022-11-03T02:57:29.271Z,14.57
2022-11-03T03:00:05.185Z,14.43
2022-11-03T03:02:40.529Z,13.98
2022-11-03T03:05:13.432Z,13.05
2022-11-03T03:07:48.533Z,10.95
2022-11-03T03:10:20.065Z,13.55
2022-11-03T03:12:53.623Z,14.20
2022-11-03T03:15:30.001Z,13.25
2022-11-03T03:18:09.847Z,14.55
2022-11-03T03:20:45.274Z,12.20
2022-11-03T03:23:20.830Z,15.32
2022-11-03T03:25:56.434Z,17.60
2022-11-03T03:28:32.997Z,12.95
2022-11-03T03:31:06.904Z,17.35
2022-11-03T03:33:38.129Z,15.07
2022-11-03T03:36:15.529Z,14.98
2022-11-03T03:38:50.709Z,11.38
2022-11-03T03:41:23.248Z,17.15
2022-11-03T03:43:55.939Z,16.27
2022-11-03T03:46:45.115Z,13.82
2022-11-03T03:49:14.332Z,14.13
2022-11-03T03:51:44.235Z,11.77
2022-11-03T03:54:14.071Z,14.43
2022-11-03T03:56:48.052Z,17.25
2022-11-03T03:59:19.005Z,15.18
2022-11-03T04:01:48.721Z,13.38
2022-11-03T04:04:19.096Z,14.95
2022-11-03T04:06:47.876Z,14.57
2022-11-03T04:09:17.174Z,15.63
2022-11-03T04:12:03.422Z,18.42
2022-11-03T04:14:54.098Z,16.10
2022-11-03T04:17:40.439Z,15.23
2022-11-03T04:20:32.273Z,17.50
2022-11-03T04:23:03.855Z,12.90
2022-11-03T04:25:32.567Z,17.70
2022-11-03T04:28:03.661Z,12.85
2022-11-03T04:30:36.947Z,15.75
2022-11-03T04:33:17.610Z,14.02
2022-11-03T04:35:50.355Z,15.55
2022-11-03T04:38:27.843Z,16.48
2022-11-03T04:40:59.381Z,15.35
2022-11-03T04:43:36.092Z,14.32
2022-11-03T04:46:14.091Z,13.32
2022-11-03T04:48:52.700Z,15.57
2022-11-03T04:51:39.440Z,18.33
2022-11-03T04:54:25.733Z,10.07
2022-11-03T04:56:57.332Z,12.65
2022-11-03T04:59:36.225Z,14.57
2022-11-03T05:02:18.432Z,14.02
2022-11-03T05:04:52.383Z,13.13
2022-11-03T05:07:41.329Z,13.20
2022-11-03T05:10:26.054Z,12.00
2022-11-03T05:12:58.403Z,16.92
2022-11-03T05:15:41.877Z,14.45
2022-11-03T05:18:21.475Z,11.27
2022-11-03T05:20:57.648Z,11.02
2022-11-03T05:23:31.769Z,10.77
2022-11-03T05:26:02.004Z,13.35
2022-11-03T05:28:36.809Z,12.68
2022-11-03T05:31:25.795Z,15.77
2022-11-03T05:34:02.156Z,13.52
2022-11-03T05:36:33.601Z,13.00
2022-11-03T05:39:28.037Z,15.05
2022-11-03T05:41:58.071Z,11.38
2022-11-03T05:44:33.667Z,14.05
2022-11-03T05:47:07.381Z,14.93
2022-11-03T05:49:38.772Z,11.07
2022-11-03T05:52:15.432Z,15.57
2022-11-03T05:54:45.307Z,12.57
2022-11-03T05:57:16.724Z,12.60
2022-11-03T05:59:47.095Z,8.82
2022-11-03T06:02:37.444Z,13.95
2022-11-03T06:05:17.164Z,13.88
2022-11-03T06:08:30.119Z,12.07
2022-11-03T06:23:52.700Z,14.00
2022-11-03T06:33:56.413Z,14.13
2022-11-03T06:36:28.614Z,13.27
2022-11-03T06:39:23.391Z,12.80
2022-11-03T06:48:39.200Z,13.15
2022-11-03T07:07:17.801Z,18.92
2022-11-03T07:14:21.940Z,15.35
2022-11-03T07:18:25.438Z,11.43
2022-11-03T07:24:50.249Z,13.60
2022-11-03T07:27:33.271Z,17.55
2022-11-03T07:30:22.552Z,14.55
2022-11-03T07:33:02.900Z,12.88
2022-11-03T07:36:00.484Z,13.52
2022-11-03T07:38:38.746Z,11.93
2022-11-03T07:41:29.620Z,12.82
2022-11-03T07:44:14.307Z,12.73
2022-11-03T07:47:06.452Z,15.43
2022-11-03T07:49:46.780Z,15.07
2022-11-03T07:55:20.023Z,16.25
2022-11-03T07:57:56.299Z,11.50
2022-11-03T08:00:33.104Z,16.08
2022-11-03T08:04:03.746Z,20.23
2022-11-03T08:06:57.458Z,11.63
2022-11-03T08:09:45.630Z,14.93
2022-11-03T08:12:24.875Z,12.43
2022-11-03T08:15:12.964Z,14.80
2022-11-03T08:18:15.360Z,16.30
2022-11-03T08:21:09.756Z,15.00
2022-11-03T08:30:06.034Z,15.73
2022-11-03T08:33:00.532Z,13.82
2022-11-03T08:35:38.857Z,16.30
2022-11-03T08:38:13.065Z,9.93
2022-11-03T08:43:59.789Z,11.68
2022-11-03T08:46:39.077Z,12.32
2022-11-03T08:49:15.824Z,12.68
2022-11-03T08:51:46.341Z,19.05
2022-11-03T08:54:27.426Z,14.30
2022-11-03T08:56:57.731Z,14.57
2022-11-03T08:59:28.113Z,16.88
2022-11-03T09:02:06.970Z,13.40
2022-11-03T09:04:54.151Z,10.85
2022-11-03T09:12:56.221Z,12.93
2022-11-03T09:15:28.426Z,13.40
2022-11-03T09:18:03.679Z,14.43
2022-11-03T09:20:39.104Z,17.98
2022-11-03T09:23:13.309Z,13.50
2022-11-03T09:25:57.634Z,12.82
2022-11-03T09:28:29.656Z,15.05
2022-11-03T09:31:18.163Z,16.27
2022-11-03T09:34:10.493Z,14.35
2022-11-03T09:36:41.181Z,12.48
2022-11-03T09:39:12.446Z,13.15
2022-11-03T09:41:59.544Z,14.82
2022-11-03T09:44:35.292Z,12.35
2022-11-03T09:47:24.292Z,10.45
2022-11-03T09:49:59.379Z,14.35
2022-11-03T09:52:30.144Z,14.25
2022-11-03T09:55:04.401Z,14.70
2022-11-03T09:57:36.558Z,11.75
2022-11-03T10:03:33.058Z,10.15
2022-11-03T10:06:03.761Z,13.18
2022-11-03T10:08:40.764Z,11.18
2022-11-03T10:11:15.113Z,14.20
2022-11-03T10:14:02.261Z,15.70
2022-11-03T10:16:35.204Z,11.90
2022-11-03T10:19:04.581Z,9.10
2022-11-03T10:21:58.594Z,9.95
2022-11-03T10:24:28.775Z,8.68
2022-11-03T10:26:58.343Z,15.15
2022-11-03T10:29:32.474Z,11.82
2022-11-03T10:32:07.173Z,10.65
2022-11-03T10:34:43.772Z,10.43
2022-11-03T10:37:20.950Z,8.90
2022-11-03T10:39:54.104Z,11.18
2022-11-03T10:47:48.274Z,11.05
2022-11-03T10:50:27.090Z,10.85
2022-11-03T10:52:58.646Z,7.88
2022-11-03T10:55:32.408Z,13.75
2022-11-03T10:58:12.057Z,10.40
2022-11-03T11:00:50.350Z,8.50
2022-11-03T11:03:21.396Z,10.40
2022-11-03T11:09:07.937Z,13.60
2022-11-03T11:12:01.704Z,16.38
2022-11-03T11:14:41.521Z,9.90
2022-11-03T11:17:49.566Z,8.23
2022-11-03T11:20:59.650Z,11.10
2022-11-03T11:23:57.029Z,11.15
2022-11-03T11:27:37.945Z,9.70
2022-11-03T11:31:20.067Z,11.88
2022-11-03T11:37:55.313Z,10.75
2022-11-03T11:41:04.413Z,9.75
2022-11-03T11:43:49.041Z,10.85
2022-11-03T11:46:43.076Z,9.60
2022-11-03T11:49:41.147Z,6.60
2022-11-03T11:52:19.295Z,9.32
2022-11-03T11:54:51.111Z,8.70
2022-11-03T11:57:25.282Z,7.82
2022-11-03T11:59:56.017Z,11.45
2022-11-03T12:05:33.968Z,10.23
2022-11-03T12:08:24.039Z,11.07
2022-11-03T12:11:03.506Z,9.57
2022-11-03T12:13:53.860Z,6.90
2022-11-03T12:20:03.500Z,8.15
2022-11-03T12:22:51.139Z,6.90
2022-11-03T12:25:49.199Z,10.15
2022-11-03T12:28:42.237Z,7.22
2022-11-03T12:31:17.180Z,8.60
2022-11-03T12:34:16.513Z,9.65
2022-11-03T12:37:06.089Z,7.45
2022-11-03T12:39:38.311Z,10.35
2022-11-03T12:42:10.268Z,6.68
2022-11-03T12:45:05.282Z,9.40
2022-11-03T12:47:35.546Z,9.25
2022-11-03T12:50:07.415Z,11.63
2022-11-03T12:52:48.055Z,8.32
2022-11-03T12:55:23.369Z,8.70
2022-11-03T12:57:51.922Z,7.97
2022-11-03T13:00:32.437Z,8.38
2022-11-03T13:03:16.909Z,10.60
2022-11-03T13:05:45.252Z,6.60
2022-11-03T13:08:27.119Z,8.32
2022-11-03T13:11:17.334Z,10.43
2022-11-03T13:13:50.873Z,8.88
2022-11-03T13:16:27.537Z,7.50
2022-11-03T13:19:00.094Z,6.85
2022-11-03T13:21:29.085Z,8.40
2022-11-03T13:35:25.505Z,6.97
2022-11-03T13:38:29.195Z,7.05
2022-11-03T13:44:52.229Z,7.32
2022-11-03T13:47:34.280Z,7.78
2022-11-03T13:50:14.913Z,6.72
2022-11-03T13:52:44.860Z,6.88
2022-11-03T14:01:12.455Z,11.95
2022-11-03T14:06:38.032Z,7.78
2022-11-03T14:09:07.009Z,6.18
2022-11-03T14:11:53.253Z,7.38
2022-11-03T14:14:26.189Z,6.72
2022-11-03T14:16:58.349Z,7.65
2022-11-03T14:19:48.673Z,8.52
2022-11-03T14:22:24.871Z,9.63
2022-11-03T14:24:54.490Z,7.93
2022-11-03T14:27:26.145Z,7.00
2022-11-03T14:29:55.210Z,8.00
2022-11-03T14:32:28.751Z,7.90
2022-11-03T14:34:58.240Z,6.70
2022-11-03T14:37:29.022Z,6.22
2022-11-03T14:39:58.904Z,8.80
2022-11-03T14:42:26.655Z,8.10
2022-11-03T14:45:11.615Z,6.65
2022-11-03T14:48:00.878Z,5.75
2022-11-03T14:50:29.096Z,8.43
2022-11-03T14:52:59.963Z,7.72
2022-11-03T14:55:34.179Z,7.03
2022-11-03T14:58:02.862Z,10.30
2022-11-03T15:03:16.006Z,5.13
2022-11-03T15:05:47.486Z,6.63
2022-11-03T15:08:19.156Z,7.00
2022-11-03T15:10:48.347Z,6.45
2022-11-03T15:13:18.003Z,6.30
2022-11-03T15:16:09.342Z,6.72
2022-11-03T15:19:14.680Z,5.68
2022-11-03T15:26:48.664Z,8.27
2022-11-03T15:45:17.965Z,7.80
2022-11-03T15:48:09.640Z,8.98
2022-11-03T15:50:42.067Z,10.20
2022-11-03T15:53:12.163Z,7.22
2022-11-03T15:56:14.947Z,6.82
2022-11-03T15:59:08.923Z,6.78
2022-11-03T16:01:45.951Z,6.47
2022-11-03T16:04:34.396Z,7.78
2022-11-03T16:10:03.907Z,6.28
2022-11-03T16:12:45.026Z,6.30
2022-11-03T17:14:28.775Z,11.15
2022-11-03T17:25:36.689Z,9.65
2022-11-03T17:28:21.348Z,9.85
2022-11-03T17:30:58.688Z,9.73
2022-11-03T17:33:29.043Z,9.88
2022-11-03T17:35:57.820Z,12.93
2022-11-03T17:38:28.335Z,11.93
2022-11-03T17:40:58.603Z,11.35
2022-11-03T17:43:30.252Z,10.93
2022-11-03T17:45:58.987Z,11.00
2022-11-03T17:48:27.591Z,11.52
2022-11-03T17:50:57.904Z,10.70
2022-11-03T17:53:30.005Z,10.68
2022-11-03T17:56:28.542Z,11.48
2022-11-03T17:59:00.151Z,11.45
2022-11-03T18:01:29.365Z,10.57
2022-11-03T18:03:59.357Z,10.95
2022-11-03T18:06:28.640Z,11.20
2022-11-03T18:08:57.393Z,13.07
2022-11-03T18:11:48.806Z,12.80
2022-11-03T18:14:20.438Z,13.43
2022-11-03T18:16:50.817Z,11.88
2022-11-03T18:19:23.483Z,12.63
2022-11-03T18:21:53.124Z,13.10
2022-11-03T18:24:23.118Z,13.68
2022-11-03T18:26:53.187Z,14.23
2022-11-03T18:29:22.254Z,13.48
2022-11-03T18:31:51.071Z,13.38
2022-11-03T18:34:25.301Z,12.80
2022-11-03T18:36:54.596Z,14.40
2022-11-03T18:39:26.732Z,12.15
2022-11-03T18:41:56.711Z,13.45
2022-11-03T18:44:36.400Z,14.20
2022-11-03T18:47:44.160Z,14.15
2022-11-03T18:54:42.449Z,14.30
2022-11-03T19:02:30.043Z,15.93
2022-11-03T19:05:02.991Z,15.80
2022-11-03T19:07:36.976Z,16.38
2022-11-03T19:10:24.420Z,15.07
2022-11-03T19:13:07.013Z,17.80
2022-11-03T19:15:36.233Z,14.25
2022-11-03T19:18:07.210Z,16.45
2022-11-03T19:20:36.296Z,18.88
2022-11-03T19:23:05.785Z,17.13
2022-11-03T19:25:34.228Z,13.80
2022-11-03T19:28:02.498Z,14.45
2022-11-03T19:30:31.760Z,14.55
2022-11-03T19:33:00.758Z,14.55
2022-11-03T19:35:34.441Z,15.38
2022-11-03T19:38:06.977Z,12.13
2022-11-03T19:40:35.720Z,14.27
2022-11-03T19:43:04.723Z,14.10
2022-11-03T19:45:32.939Z,14.25
2022-11-03T19:48:23.132Z,13.88
2022-11-03T19:50:53.447Z,14.18
2022-11-03T19:53:26.664Z,12.98
2022-11-03T19:55:56.072Z,13.80
2022-11-03T19:58:26.692Z,12.52
2022-11-03T20:00:55.879Z,13.73
2022-11-03T20:03:25.008Z,12.32
2022-11-03T20:05:57.699Z,12.68
2022-11-03T20:08:30.154Z,14.18
2022-11-03T20:10:59.137Z,11.77
2022-11-03T20:13:39.756Z,8.38
2022-11-03T20:16:17.574Z,10.60
2022-11-03T20:18:48.290Z,8.20
2022-11-03T20:24:09.928Z,9.30
2022-11-03T20:26:39.446Z,9.75
2022-11-03T20:29:15.515Z,9.73
2022-11-03T20:45:29.580Z,9.25
2022-11-03T20:47:59.643Z,7.38
2022-11-03T20:50:36.886Z,9.93
2022-11-03T20:53:18.109Z,9.70
2022-11-03T20:55:50.672Z,8.40
2022-11-03T20:58:22.856Z,6.53
2022-11-03T21:00:53.292Z,6.55
2022-11-03T21:06:17.684Z,5.70
2022-11-03T21:08:46.656Z,5.15
2022-11-03T21:11:24.358Z,4.47
2022-11-03T21:13:53.447Z,6.95
2022-11-03T21:16:44.036Z,6.15
2022-11-03T21:22:53.728Z,6.93
2022-11-03T21:25:24.702Z,7.43
2022-11-03T21:27:54.226Z,5.38
2022-11-03T21:30:23.763Z,6.88
2022-11-03T21:32:53.398Z,6.95
2022-11-03T21:35:23.202Z,6.63
2022-11-03T21:37:51.498Z,4.63
2022-11-03T21:40:19.724Z,9.60
2022-11-03T21:43:05.239Z,7.03
2022-11-03T21:45:33.487Z,6.20
2022-11-03T21:48:21.324Z,4.68
2022-11-03T21:50:50.119Z,4.45
2022-11-03T21:53:18.346Z,6.15
2022-11-03T21:55:49.333Z,5.97
2022-11-03T21:58:17.677Z,7.35
2022-11-03T22:00:47.174Z,7.75
2022-11-03T22:03:16.986Z,5.80
2022-11-03T22:05:45.224Z,6.35
2022-11-03T22:08:13.511Z,6.07
2022-11-03T22:10:42.175Z,7.55
2022-11-03T22:13:11.322Z,8.35
2022-11-03T22:15:57.392Z,7.95
2022-11-03T22:18:26.891Z,6.57
2022-11-03T22:21:12.415Z,5.60
2022-11-03T22:23:58.219Z,7.35
2022-11-03T22:26:44.105Z,7.07
2022-11-03T22:29:29.704Z,7.72
2022-11-03T22:31:57.857Z,5.70
2022-11-03T22:34:45.101Z,6.57
2022-11-03T22:37:13.223Z,5.05
2022-11-03T22:39:58.920Z,5.20
2022-11-03T22:45:35.469Z,6.85
2022-11-03T22:48:15.453Z,5.30
2022-11-03T22:50:48.528Z,5.32
2022-11-03T22:53:34.319Z,5.78
2022-11-03T22:56:02.519Z,4.45
2022-11-03T22:58:30.945Z,6.72
2022-11-03T23:00:59.271Z,5.10
2022-11-03T23:03:31.755Z,6.85
2022-11-03T23:06:03.784Z,4.40
2022-11-03T23:08:33.497Z,6.75
2022-11-03T23:11:07.330Z,5.55
2022-11-03T23:13:36.178Z,4.07
2022-11-03T23:16:14.092Z,5.95
2022-11-03T23:18:59.874Z,9.05
2022-11-03T23:21:30.089Z,3.92
2022-11-03T23:24:16.084Z,6.85
2022-11-03T23:26:44.871Z,6.57
2022-11-03T23:29:14.822Z,5.85
2022-11-03T23:31:44.734Z,5.80
2022-11-03T23:34:14.519Z,5.15
2022-11-03T23:36:44.412Z,7.78
2022-11-03T23:39:15.994Z,8.15
2022-11-03T23:41:45.703Z,5.97
2022-11-03T23:44:16.397Z,5.68
2022-11-03T23:47:03.106Z,7.53
2022-11-03T23:49:31.718Z,5.95
2022-11-03T23:52:01.397Z,6.57
2022-11-03T23:54:30.033Z,5.15
2022-11-03T23:57:16.156Z,4.75
